sensor_id;sensor_type;location;lat;lon;timestamp;pressure;altitude;pressure_sealevel;temperature;humidity
76762;BME280;65705;51.032;13.790;2023-04-06T00:01:39;100847.25;;;3.33;65.53
76762;BME280;65705;51.032;13.790;2023-04-06T00:04:05;100848.81;;;3.36;65.58
76762;BME280;65705;51.032;13.790;2023-04-06T00:06:32;100852.63;;;3.44;64.98
76762;BME280;65705;51.032;13.790;2023-04-06T00:08:59;100851.25;;;3.39;65.11
76762;BME280;65705;51.032;13.790;2023-04-06T00:11:25;100852.16;;;3.38;65.43
76762;BME280;65705;51.032;13.790;2023-04-06T00:13:51;100851.59;;;3.33;65.29
76762;BME280;65705;51.032;13.790;2023-04-06T00:16:17;100857.63;;;3.33;65.72
76762;BME280;65705;51.032;13.790;2023-04-06T00:18:43;100858.19;;;3.24;65.81
76762;BME280;65705;51.032;13.790;2023-04-06T00:21:13;100857.34;;;3.23;66.12
76762;BME280;65705;51.032;13.790;2023-04-06T00:23:40;100853.00;;;3.24;66.15
76762;BME280;65705;51.032;13.790;2023-04-06T00:26:06;100852.47;;;3.19;66.45
76762;BME280;65705;51.032;13.790;2023-04-06T00:28:32;100854.31;;;3.17;66.68
76762;BME280;65705;51.032;13.790;2023-04-06T00:30:57;100856.72;;;3.20;66.52
76762;BME280;65705;51.032;13.790;2023-04-06T00:33:24;100852.72;;;3.14;66.60
76762;BME280;65705;51.032;13.790;2023-04-06T00:35:50;100850.13;;;3.14;66.76
76762;BME280;65705;51.032;13.790;2023-04-06T00:38:16;100849.50;;;3.11;66.88
76762;BME280;65705;51.032;13.790;2023-04-06T00:40:43;100852.00;;;3.12;66.54
76762;BME280;65705;51.032;13.790;2023-04-06T00:43:11;100852.19;;;3.09;67.02
76762;BME280;65705;51.032;13.790;2023-04-06T00:45:41;100848.94;;;3.06;67.14
76762;BME280;65705;51.032;13.790;2023-04-06T00:48:07;100848.47;;;2.99;67.26
76762;BME280;65705;51.032;13.790;2023-04-06T00:50:34;100852.53;;;3.03;67.32
76762;BME280;65705;51.032;13.790;2023-04-06T00:53:00;100844.66;;;3.05;66.95
76762;BME280;65705;51.032;13.790;2023-04-06T00:55:28;100851.63;;;3.04;67.16
76762;BME280;65705;51.032;13.790;2023-04-06T00:57:54;100840.25;;;2.93;67.24
76762;BME280;65705;51.032;13.790;2023-04-06T01:00:23;100855.22;;;2.74;67.89
76762;BME280;65705;51.032;13.790;2023-04-06T01:02:56;100853.66;;;2.71;68.27
76762;BME280;65705;51.032;13.790;2023-04-06T01:05:29;100848.47;;;2.71;68.08
76762;BME280;65705;51.032;13.790;2023-04-06T01:07:57;100844.03;;;2.73;68.00
76762;BME280;65705;51.032;13.790;2023-04-06T01:10:28;100844.47;;;2.80;68.23
76762;BME280;65705;51.032;13.790;2023-04-06T01:13:17;100839.69;;;2.88;67.39
76762;BME280;65705;51.032;13.790;2023-04-06T01:16:02;100843.19;;;2.87;67.49
76762;BME280;65705;51.032;13.790;2023-04-06T01:18:37;100842.09;;;2.91;67.30
76762;BME280;65705;51.032;13.790;2023-04-06T01:21:16;100848.66;;;2.82;67.68
76762;BME280;65705;51.032;13.790;2023-04-06T01:23:58;100850.31;;;2.83;67.71
76762;BME280;65705;51.032;13.790;2023-04-06T01:26:32;100852.09;;;2.83;67.53
76762;BME280;65705;51.032;13.790;2023-04-06T01:29:00;100842.72;;;2.80;67.65
76762;BME280;65705;51.032;13.790;2023-04-06T01:31:28;100844.56;;;2.78;67.88
76762;BME280;65705;51.032;13.790;2023-04-06T01:33:54;100837.28;;;2.85;67.31
76762;BME280;65705;51.032;13.790;2023-04-06T01:36:23;100839.13;;;2.83;67.52
76762;BME280;65705;51.032;13.790;2023-04-06T01:38:57;100840.97;;;2.81;67.61
76762;BME280;65705;51.032;13.790;2023-04-06T01:41:30;100841.63;;;2.84;67.66
76762;BME280;65705;51.032;13.790;2023-04-06T01:43:56;100836.34;;;2.72;67.81
76762;BME280;65705;51.032;13.790;2023-04-06T01:46:26;100835.88;;;2.65;68.35
76762;BME280;65705;51.032;13.790;2023-04-06T01:48:52;100845.13;;;2.69;67.95
76762;BME280;65705;51.032;13.790;2023-04-06T01:51:47;100835.41;;;2.59;68.02
76762;BME280;65705;51.032;13.790;2023-04-06T01:54:13;100840.88;;;2.54;68.36
76762;BME280;65705;51.032;13.790;2023-04-06T01:56:54;100838.38;;;2.53;67.99
76762;BME280;65705;51.032;13.790;2023-04-06T01:59:34;100835.28;;;2.46;68.39
76762;BME280;65705;51.032;13.790;2023-04-06T02:02:04;100834.53;;;2.44;68.50
76762;BME280;65705;51.032;13.790;2023-04-06T02:04:32;100839.63;;;2.46;68.66
76762;BME280;65705;51.032;13.790;2023-04-06T02:07:07;100839.19;;;2.53;67.96
76762;BME280;65705;51.032;13.790;2023-04-06T02:09:33;100839.47;;;2.49;67.88
76762;BME280;65705;51.032;13.790;2023-04-06T02:11:59;100833.06;;;2.40;68.32
76762;BME280;65705;51.032;13.790;2023-04-06T02:14:27;100840.00;;;2.40;68.44
76762;BME280;65705;51.032;13.790;2023-04-06T02:16:57;100831.56;;;2.36;68.68
76762;BME280;65705;51.032;13.790;2023-04-06T02:19:23;100827.69;;;2.29;68.56
76762;BME280;65705;51.032;13.790;2023-04-06T02:21:49;100827.28;;;2.21;68.90
76762;BME280;65705;51.032;13.790;2023-04-06T02:24:14;100829.78;;;2.23;68.81
76762;BME280;65705;51.032;13.790;2023-04-06T02:26:40;100832.63;;;2.18;69.11
76762;BME280;65705;51.032;13.790;2023-04-06T02:29:06;100824.88;;;2.18;69.15
76762;BME280;65705;51.032;13.790;2023-04-06T02:31:32;100825.78;;;2.17;68.88
76762;BME280;65705;51.032;13.790;2023-04-06T02:33:59;100820.88;;;2.12;69.09
76762;BME280;65705;51.032;13.790;2023-04-06T02:36:25;100822.81;;;2.09;69.02
76762;BME280;65705;51.032;13.790;2023-04-06T02:38:51;100818.72;;;2.05;69.40
76762;BME280;65705;51.032;13.790;2023-04-06T02:41:17;100818.91;;;2.02;69.36
76762;BME280;65705;51.032;13.790;2023-04-06T02:43:44;100823.44;;;1.98;69.46
76762;BME280;65705;51.032;13.790;2023-04-06T02:46:17;100829.31;;;1.86;69.77
76762;BME280;65705;51.032;13.790;2023-04-06T02:48:43;100821.59;;;1.85;69.82
76762;BME280;65705;51.032;13.790;2023-04-06T02:51:08;100822.53;;;1.84;69.84
76762;BME280;65705;51.032;13.790;2023-04-06T02:53:36;100820.94;;;1.81;70.44
76762;BME280;65705;51.032;13.790;2023-04-06T02:56:02;100824.19;;;1.85;70.32
76762;BME280;65705;51.032;13.790;2023-04-06T02:58:37;100819.84;;;1.85;69.99
76762;BME280;65705;51.032;13.790;2023-04-06T03:01:03;100825.78;;;1.87;70.23
76762;BME280;65705;51.032;13.790;2023-04-06T03:03:29;100828.59;;;1.83;69.89
76762;BME280;65705;51.032;13.790;2023-04-06T03:05:56;100826.03;;;1.83;70.15
76762;BME280;65705;51.032;13.790;2023-04-06T03:08:27;100828.69;;;1.81;70.08
76762;BME280;65705;51.032;13.790;2023-04-06T03:10:52;100828.59;;;1.83;70.16
76762;BME280;65705;51.032;13.790;2023-04-06T03:13:18;100833.72;;;1.84;70.40
76762;BME280;65705;51.032;13.790;2023-04-06T03:15:53;100828.97;;;1.77;70.27
76762;BME280;65705;51.032;13.790;2023-04-06T03:18:22;100820.56;;;1.73;70.39
76762;BME280;65705;51.032;13.790;2023-04-06T03:20:52;100829.88;;;1.76;70.64
76762;BME280;65705;51.032;13.790;2023-04-06T03:23:25;100824.25;;;1.54;71.10
76762;BME280;65705;51.032;13.790;2023-04-06T03:25:55;100831.25;;;1.52;71.53
76762;BME280;65705;51.032;13.790;2023-04-06T03:28:21;100825.59;;;1.45;71.20
76762;BME280;65705;51.032;13.790;2023-04-06T03:30:54;100836.91;;;1.43;71.45
76762;BME280;65705;51.032;13.790;2023-04-06T03:33:36;100837.59;;;1.46;71.31
76762;BME280;65705;51.032;13.790;2023-04-06T03:36:02;100836.84;;;1.44;71.10
76762;BME280;65705;51.032;13.790;2023-04-06T03:38:31;100844.53;;;1.61;70.83
76762;BME280;65705;51.032;13.790;2023-04-06T03:40:57;100840.25;;;1.60;70.80
76762;BME280;65705;51.032;13.790;2023-04-06T03:43:26;100837.84;;;1.57;70.55
76762;BME280;65705;51.032;13.790;2023-04-06T03:45:51;100845.34;;;1.46;70.84
76762;BME280;65705;51.032;13.790;2023-04-06T03:48:17;100846.41;;;1.42;70.94
76762;BME280;65705;51.032;13.790;2023-04-06T03:50:43;100848.34;;;1.39;71.16
76762;BME280;65705;51.032;13.790;2023-04-06T03:53:09;100860.44;;;1.38;70.97
76762;BME280;65705;51.032;13.790;2023-04-06T03:55:34;100855.03;;;1.43;70.83
76762;BME280;65705;51.032;13.790;2023-04-06T03:58:00;100856.53;;;1.47;70.54
76762;BME280;65705;51.032;13.790;2023-04-06T04:00:26;100850.16;;;1.37;70.78
76762;BME280;65705;51.032;13.790;2023-04-06T04:02:54;100855.44;;;1.35;70.96
76762;BME280;65705;51.032;13.790;2023-04-06T04:05:20;100856.44;;;1.33;70.89
76762;BME280;65705;51.032;13.790;2023-04-06T04:07:51;100857.16;;;1.35;70.63
76762;BME280;65705;51.032;13.790;2023-04-06T04:10:18;100859.19;;;1.30;70.56
76762;BME280;65705;51.032;13.790;2023-04-06T04:12:45;100859.25;;;1.28;70.59
76762;BME280;65705;51.032;13.790;2023-04-06T04:15:11;100856.75;;;1.27;70.57
76762;BME280;65705;51.032;13.790;2023-04-06T04:17:37;100861.63;;;1.33;70.08
76762;BME280;65705;51.032;13.790;2023-04-06T04:20:04;100857.59;;;1.27;70.06
76762;BME280;65705;51.032;13.790;2023-04-06T04:22:30;100855.06;;;1.26;70.27
76762;BME280;65705;51.032;13.790;2023-04-06T04:24:57;100857.75;;;1.08;70.64
76762;BME280;65705;51.032;13.790;2023-04-06T04:27:24;100856.81;;;1.09;70.62
76762;BME280;65705;51.032;13.790;2023-04-06T04:29:50;100869.22;;;1.03;71.19
76762;BME280;65705;51.032;13.790;2023-04-06T04:32:16;100860.50;;;1.05;70.64
76762;BME280;65705;51.032;13.790;2023-04-06T04:34:43;100861.66;;;1.00;71.43
76762;BME280;65705;51.032;13.790;2023-04-06T04:37:17;100862.94;;;0.91;71.15
76762;BME280;65705;51.032;13.790;2023-04-06T04:39:53;100865.31;;;0.79;71.80
76762;BME280;65705;51.032;13.790;2023-04-06T04:42:19;100861.06;;;0.78;72.32
76762;BME280;65705;51.032;13.790;2023-04-06T04:44:49;100867.69;;;0.83;72.53
76762;BME280;65705;51.032;13.790;2023-04-06T04:47:23;100856.38;;;1.01;72.38
76762;BME280;65705;51.032;13.790;2023-04-06T04:49:49;100866.41;;;1.08;72.24
76762;BME280;65705;51.032;13.790;2023-04-06T04:52:20;100862.31;;;1.03;72.08
76762;BME280;65705;51.032;13.790;2023-04-06T04:55:10;100865.97;;;0.99;72.33
76762;BME280;65705;51.032;13.790;2023-04-06T04:57:35;100855.53;;;1.01;72.32
76762;BME280;65705;51.032;13.790;2023-04-06T05:00:05;100855.94;;;0.93;73.07
76762;BME280;65705;51.032;13.790;2023-04-06T05:02:33;100858.22;;;0.99;72.52
76762;BME280;65705;51.032;13.790;2023-04-06T05:05:13;100861.88;;;0.95;73.22
76762;BME280;65705;51.032;13.790;2023-04-06T05:07:39;100859.28;;;0.95;72.83
76762;BME280;65705;51.032;13.790;2023-04-06T05:10:09;100866.56;;;1.04;72.40
76762;BME280;65705;51.032;13.790;2023-04-06T05:12:41;100868.34;;;1.20;71.55
76762;BME280;65705;51.032;13.790;2023-04-06T05:15:09;100870.94;;;1.35;71.09
76762;BME280;65705;51.032;13.790;2023-04-06T05:17:36;100874.06;;;1.57;70.25
76762;BME280;65705;51.032;13.790;2023-04-06T05:20:02;100876.81;;;1.70;70.35
76762;BME280;65705;51.032;13.790;2023-04-06T05:22:32;100878.53;;;1.85;69.27
76762;BME280;65705;51.032;13.790;2023-04-06T05:25:07;100872.53;;;1.84;69.12
76762;BME280;65705;51.032;13.790;2023-04-06T05:27:34;100885.38;;;1.86;69.09
76762;BME280;65705;51.032;13.790;2023-04-06T05:30:05;100882.53;;;1.90;68.58
76762;BME280;65705;51.032;13.790;2023-04-06T05:32:39;100888.97;;;1.99;68.13
76762;BME280;65705;51.032;13.790;2023-04-06T05:35:05;100884.38;;;2.04;68.27
76762;BME280;65705;51.032;13.790;2023-04-06T05:37:31;100891.94;;;2.07;67.44
76762;BME280;65705;51.032;13.790;2023-04-06T05:39:58;100896.81;;;2.13;67.27
76762;BME280;65705;51.032;13.790;2023-04-06T05:42:24;100892.28;;;2.17;67.75
76762;BME280;65705;51.032;13.790;2023-04-06T05:44:53;100891.34;;;2.17;67.07
76762;BME280;65705;51.032;13.790;2023-04-06T05:47:19;100894.03;;;2.16;67.21
76762;BME280;65705;51.032;13.790;2023-04-06T05:49:50;100895.53;;;2.20;67.23
76762;BME280;65705;51.032;13.790;2023-04-06T05:52:25;100894.34;;;2.26;67.57
76762;BME280;65705;51.032;13.790;2023-04-06T05:54:51;100893.63;;;2.38;67.42
76762;BME280;65705;51.032;13.790;2023-04-06T05:57:17;100883.75;;;2.44;66.98
76762;BME280;65705;51.032;13.790;2023-04-06T05:59:44;100891.53;;;2.44;66.85
76762;BME280;65705;51.032;13.790;2023-04-06T06:02:12;100896.59;;;2.46;67.05
76762;BME280;65705;51.032;13.790;2023-04-06T06:04:42;100890.63;;;2.45;66.66
76762;BME280;65705;51.032;13.790;2023-04-06T06:07:08;100886.34;;;2.44;66.73
76762;BME280;65705;51.032;13.790;2023-04-06T06:09:40;100891.94;;;2.52;66.91
76762;BME280;65705;51.032;13.790;2023-04-06T06:12:26;100884.06;;;2.54;66.76
76762;BME280;65705;51.032;13.790;2023-04-06T06:14:54;100886.88;;;2.65;66.59
76762;BME280;65705;51.032;13.790;2023-04-06T06:17:22;100883.00;;;2.72;66.72
76762;BME280;65705;51.032;13.790;2023-04-06T06:19:48;100886.78;;;2.80;66.68
76762;BME280;65705;51.032;13.790;2023-04-06T06:22:14;100877.06;;;2.84;66.18
76762;BME280;65705;51.032;13.790;2023-04-06T06:24:44;100877.47;;;2.92;66.00
76762;BME280;65705;51.032;13.790;2023-04-06T06:27:11;100873.09;;;2.92;65.71
76762;BME280;65705;51.032;13.790;2023-04-06T06:29:37;100878.75;;;2.99;65.34
76762;BME280;65705;51.032;13.790;2023-04-06T06:32:03;100879.41;;;3.02;65.62
76762;BME280;65705;51.032;13.790;2023-04-06T06:34:29;100887.75;;;2.93;65.50
76762;BME280;65705;51.032;13.790;2023-04-06T06:36:57;100886.00;;;2.94;65.82
76762;BME280;65705;51.032;13.790;2023-04-06T06:39:23;100880.16;;;3.04;65.32
76762;BME280;65705;51.032;13.790;2023-04-06T06:41:50;100885.78;;;3.11;65.07
76762;BME280;65705;51.032;13.790;2023-04-06T06:44:17;100888.84;;;3.17;64.71
76762;BME280;65705;51.032;13.790;2023-04-06T06:46:43;100885.25;;;3.20;64.57
76762;BME280;65705;51.032;13.790;2023-04-06T06:49:09;100881.44;;;3.26;64.30
76762;BME280;65705;51.032;13.790;2023-04-06T06:51:36;100885.78;;;3.25;63.90
76762;BME280;65705;51.032;13.790;2023-04-06T06:54:02;100888.66;;;3.35;63.93
76762;BME280;65705;51.032;13.790;2023-04-06T06:56:28;100884.22;;;3.37;63.62
76762;BME280;65705;51.032;13.790;2023-04-06T06:58:54;100884.56;;;3.45;63.46
76762;BME280;65705;51.032;13.790;2023-04-06T07:01:20;100883.44;;;3.49;63.34
76762;BME280;65705;51.032;13.790;2023-04-06T07:03:46;100885.47;;;3.58;62.83
76762;BME280;65705;51.032;13.790;2023-04-06T07:06:12;100891.47;;;3.72;62.71
76762;BME280;65705;51.032;13.790;2023-04-06T07:08:39;100892.31;;;3.73;62.90
76762;BME280;65705;51.032;13.790;2023-04-06T07:11:05;100893.41;;;3.83;62.35
76762;BME280;65705;51.032;13.790;2023-04-06T07:13:30;100890.22;;;3.92;62.13
76762;BME280;65705;51.032;13.790;2023-04-06T07:15:58;100890.00;;;3.95;62.32
76762;BME280;65705;51.032;13.790;2023-04-06T07:18:23;100886.28;;;3.99;61.69
76762;BME280;65705;51.032;13.790;2023-04-06T07:20:49;100886.81;;;4.04;61.56
76762;BME280;65705;51.032;13.790;2023-04-06T07:23:16;100886.97;;;4.15;61.38
76762;BME280;65705;51.032;13.790;2023-04-06T07:25:42;100891.25;;;4.28;61.24
76762;BME280;65705;51.032;13.790;2023-04-06T07:28:09;100877.66;;;4.38;60.84
76762;BME280;65705;51.032;13.790;2023-04-06T07:30:36;100885.28;;;4.41;60.43
76762;BME280;65705;51.032;13.790;2023-04-06T07:33:02;100885.81;;;4.46;60.42
76762;BME280;65705;51.032;13.790;2023-04-06T07:35:29;100884.06;;;4.59;60.01
76762;BME280;65705;51.032;13.790;2023-04-06T07:37:57;100886.34;;;4.63;60.13
76762;BME280;65705;51.032;13.790;2023-04-06T07:40:23;100876.28;;;4.71;59.15
76762;BME280;65705;51.032;13.790;2023-04-06T07:42:49;100871.59;;;4.76;59.20
76762;BME280;65705;51.032;13.790;2023-04-06T07:45:15;100873.59;;;4.85;59.28
76762;BME280;65705;51.032;13.790;2023-04-06T07:47:42;100878.34;;;4.91;58.85
76762;BME280;65705;51.032;13.790;2023-04-06T07:50:09;100866.09;;;4.93;58.61
76762;BME280;65705;51.032;13.790;2023-04-06T07:52:36;100870.47;;;5.05;58.61
76762;BME280;65705;51.032;13.790;2023-04-06T07:55:02;100880.25;;;5.14;57.84
76762;BME280;65705;51.032;13.790;2023-04-06T07:57:28;100873.75;;;5.20;57.63
76762;BME280;65705;51.032;13.790;2023-04-06T07:59:53;100872.63;;;5.24;57.35
76762;BME280;65705;51.032;13.790;2023-04-06T08:02:19;100861.69;;;5.31;56.92
76762;BME280;65705;51.032;13.790;2023-04-06T08:04:45;100868.13;;;5.38;56.59
76762;BME280;65705;51.032;13.790;2023-04-06T08:07:11;100864.88;;;5.48;55.71
76762;BME280;65705;51.032;13.790;2023-04-06T08:09:37;100876.28;;;5.58;55.40
76762;BME280;65705;51.032;13.790;2023-04-06T08:12:03;100872.94;;;5.68;54.85
76762;BME280;65705;51.032;13.790;2023-04-06T08:14:29;100864.69;;;5.74;54.94
76762;BME280;65705;51.032;13.790;2023-04-06T08:16:55;100872.38;;;5.76;54.35
76762;BME280;65705;51.032;13.790;2023-04-06T08:19:21;100875.50;;;5.81;54.11
76762;BME280;65705;51.032;13.790;2023-04-06T08:21:46;100877.09;;;5.83;53.95
76762;BME280;65705;51.032;13.790;2023-04-06T08:24:13;100869.44;;;5.93;53.28
76762;BME280;65705;51.032;13.790;2023-04-06T08:26:39;100869.81;;;5.99;52.59
76762;BME280;65705;51.032;13.790;2023-04-06T08:29:05;100871.88;;;6.07;52.26
76762;BME280;65705;51.032;13.790;2023-04-06T08:31:35;100864.25;;;6.16;52.51
76762;BME280;65705;51.032;13.790;2023-04-06T08:34:03;100870.53;;;6.25;52.33
76762;BME280;65705;51.032;13.790;2023-04-06T08:36:30;100858.84;;;6.30;50.91
76762;BME280;65705;51.032;13.790;2023-04-06T08:38:56;100862.09;;;6.45;50.05
76762;BME280;65705;51.032;13.790;2023-04-06T08:41:22;100864.59;;;6.58;47.91
76762;BME280;65705;51.032;13.790;2023-04-06T08:43:56;100863.53;;;6.60;46.57
76762;BME280;65705;51.032;13.790;2023-04-06T08:46:23;100855.63;;;6.73;47.23
76762;BME280;65705;51.032;13.790;2023-04-06T08:48:55;100848.97;;;6.80;46.15
76762;BME280;65705;51.032;13.790;2023-04-06T08:51:25;100857.19;;;6.86;44.92
76762;BME280;65705;51.032;13.790;2023-04-06T08:53:56;100857.66;;;6.91;45.14
76762;BME280;65705;51.032;13.790;2023-04-06T08:56:26;100855.28;;;6.99;44.91
76762;BME280;65705;51.032;13.790;2023-04-06T08:58:54;100853.06;;;7.06;44.15
76762;BME280;65705;51.032;13.790;2023-04-06T09:01:27;100853.06;;;7.17;43.45
76762;BME280;65705;51.032;13.790;2023-04-06T09:03:58;100852.69;;;7.32;42.67
76762;BME280;65705;51.032;13.790;2023-04-06T09:06:26;100849.69;;;7.37;41.75
76762;BME280;65705;51.032;13.790;2023-04-06T09:08:52;100847.69;;;7.40;41.80
76762;BME280;65705;51.032;13.790;2023-04-06T09:11:19;100848.97;;;7.35;40.51
76762;BME280;65705;51.032;13.790;2023-04-06T09:13:50;100850.78;;;7.34;40.44
76762;BME280;65705;51.032;13.790;2023-04-06T09:16:17;100847.94;;;7.37;40.58
76762;BME280;65705;51.032;13.790;2023-04-06T09:18:43;100838.19;;;7.51;44.28
76762;BME280;65705;51.032;13.790;2023-04-06T09:21:09;100845.72;;;7.76;41.72
76762;BME280;65705;51.032;13.790;2023-04-06T09:23:35;100841.66;;;7.83;40.80
76762;BME280;65705;51.032;13.790;2023-04-06T09:26:16;100838.34;;;7.81;39.88
76762;BME280;65705;51.032;13.790;2023-04-06T09:28:47;100847.16;;;7.80;39.10
76762;BME280;65705;51.032;13.790;2023-04-06T09:31:14;100833.84;;;7.83;39.36
76762;BME280;65705;51.032;13.790;2023-04-06T09:33:43;100835.94;;;7.89;38.72
76762;BME280;65705;51.032;13.790;2023-04-06T09:36:09;100832.41;;;8.10;38.12
76762;BME280;65705;51.032;13.790;2023-04-06T09:38:57;100835.41;;;8.37;37.40
76762;BME280;65705;51.032;13.790;2023-04-06T09:41:28;100829.44;;;8.15;36.70
76762;BME280;65705;51.032;13.790;2023-04-06T09:44:11;100830.28;;;8.15;36.39
76762;BME280;65705;51.032;13.790;2023-04-06T09:49:05;100825.28;;;8.12;36.12
76762;BME280;65705;51.032;13.790;2023-04-06T09:51:36;100821.38;;;8.07;35.60
76762;BME280;65705;51.032;13.790;2023-04-06T09:54:03;100824.81;;;8.07;34.96
76762;BME280;65705;51.032;13.790;2023-04-06T09:56:39;100825.41;;;8.11;35.44
76762;BME280;65705;51.032;13.790;2023-04-06T09:59:22;100821.31;;;8.29;34.61
76762;BME280;65705;51.032;13.790;2023-04-06T10:01:51;100816.38;;;8.35;34.86
76762;BME280;65705;51.032;13.790;2023-04-06T10:04:43;100816.03;;;8.40;35.61
76762;BME280;65705;51.032;13.790;2023-04-06T10:07:11;100803.13;;;8.48;36.04
76762;BME280;65705;51.032;13.790;2023-04-06T10:09:37;100803.31;;;8.56;35.63
76762;BME280;65705;51.032;13.790;2023-04-06T10:12:05;100804.13;;;8.77;35.00
76762;BME280;65705;51.032;13.790;2023-04-06T10:14:34;100801.97;;;8.92;34.38
76762;BME280;65705;51.032;13.790;2023-04-06T10:17:03;100794.59;;;9.06;34.09
76762;BME280;65705;51.032;13.790;2023-04-06T10:19:39;100798.06;;;9.16;34.05
76762;BME280;65705;51.032;13.790;2023-04-06T10:22:08;100798.53;;;9.31;33.88
76762;BME280;65705;51.032;13.790;2023-04-06T10:24:36;100804.13;;;9.56;32.93
76762;BME280;65705;51.032;13.790;2023-04-06T10:27:02;100793.34;;;9.59;32.35
76762;BME280;65705;51.032;13.790;2023-04-06T10:29:28;100795.72;;;9.72;32.86
76762;BME280;65705;51.032;13.790;2023-04-06T10:32:06;100793.25;;;9.80;33.80
76762;BME280;65705;51.032;13.790;2023-04-06T10:34:35;100791.31;;;9.92;33.06
76762;BME280;65705;51.032;13.790;2023-04-06T10:37:14;100790.91;;;9.96;33.08
76762;BME280;65705;51.032;13.790;2023-04-06T10:39:47;100790.22;;;9.94;31.83
76762;BME280;65705;51.032;13.790;2023-04-06T10:42:24;100785.94;;;9.93;31.62
76762;BME280;65705;51.032;13.790;2023-04-06T10:44:51;100784.97;;;9.85;31.69
76762;BME280;65705;51.032;13.790;2023-04-06T10:47:18;100790.31;;;9.54;31.28
76762;BME280;65705;51.032;13.790;2023-04-06T10:49:44;100794.03;;;9.42;30.98
76762;BME280;65705;51.032;13.790;2023-04-06T10:52:10;100788.47;;;9.36;31.45
76762;BME280;65705;51.032;13.790;2023-04-06T10:54:41;100783.13;;;9.37;31.84
76762;BME280;65705;51.032;13.790;2023-04-06T10:57:08;100788.47;;;9.36;30.15
76762;BME280;65705;51.032;13.790;2023-04-06T10:59:33;100796.22;;;9.37;29.94
76762;BME280;65705;51.032;13.790;2023-04-06T11:01:59;100795.22;;;9.29;31.31
76762;BME280;65705;51.032;13.790;2023-04-06T11:04:25;100790.56;;;9.42;30.88
76762;BME280;65705;51.032;13.790;2023-04-06T11:06:51;100781.75;;;9.52;30.77
76762;BME280;65705;51.032;13.790;2023-04-06T11:09:27;100779.41;;;9.59;30.47
76762;BME280;65705;51.032;13.790;2023-04-06T11:11:54;100769.66;;;9.71;30.53
76762;BME280;65705;51.032;13.790;2023-04-06T11:14:23;100772.00;;;9.83;30.39
76762;BME280;65705;51.032;13.790;2023-04-06T11:16:49;100759.16;;;9.99;30.00
76762;BME280;65705;51.032;13.790;2023-04-06T11:19:15;100759.75;;;10.12;30.56
76762;BME280;65705;51.032;13.790;2023-04-06T11:21:46;100763.59;;;10.18;31.44
76762;BME280;65705;51.032;13.790;2023-04-06T11:24:20;100770.63;;;9.98;31.57
76762;BME280;65705;51.032;13.790;2023-04-06T11:26:49;100763.72;;;9.78;31.26
76762;BME280;65705;51.032;13.790;2023-04-06T11:29:17;100757.50;;;9.79;31.10
76762;BME280;65705;51.032;13.790;2023-04-06T11:31:48;100762.22;;;9.95;31.73
76762;BME280;65705;51.032;13.790;2023-04-06T11:34:20;100760.97;;;9.89;31.24
76762;BME280;65705;51.032;13.790;2023-04-06T11:36:47;100756.81;;;9.96;31.30
76762;BME280;65705;51.032;13.790;2023-04-06T11:39:25;100751.44;;;9.98;31.57
76762;BME280;65705;51.032;13.790;2023-04-06T11:41:54;100755.56;;;10.00;31.60
76762;BME280;65705;51.032;13.790;2023-04-06T11:46:58;100760.13;;;9.79;31.40
76762;BME280;65705;51.032;13.790;2023-04-06T11:49:31;100756.13;;;9.85;31.27
76762;BME280;65705;51.032;13.790;2023-04-06T11:51:58;100752.13;;;10.00;31.34
76762;BME280;65705;51.032;13.790;2023-04-06T11:54:37;100756.69;;;9.79;31.36
76762;BME280;65705;51.032;13.790;2023-04-06T11:57:07;100754.88;;;9.79;31.50
76762;BME280;65705;51.032;13.790;2023-04-06T11:59:34;100743.16;;;9.74;30.97
76762;BME280;65705;51.032;13.790;2023-04-06T12:02:01;100747.84;;;9.80;31.55
76762;BME280;65705;51.032;13.790;2023-04-06T12:04:27;100743.44;;;9.90;30.98
76762;BME280;65705;51.032;13.790;2023-04-06T12:06:53;100732.78;;;10.01;31.41
76762;BME280;65705;51.032;13.790;2023-04-06T12:09:19;100737.78;;;10.04;31.31
76762;BME280;65705;51.032;13.790;2023-04-06T12:11:45;100736.13;;;10.12;30.54
76762;BME280;65705;51.032;13.790;2023-04-06T12:14:11;100745.34;;;9.97;31.09
76762;BME280;65705;51.032;13.790;2023-04-06T12:16:37;100742.03;;;9.95;30.72
76762;BME280;65705;51.032;13.790;2023-04-06T12:19:03;100729.47;;;9.99;30.77
76762;BME280;65705;51.032;13.790;2023-04-06T12:21:30;100727.53;;;10.29;31.17
76762;BME280;65705;51.032;13.790;2023-04-06T12:23:59;100722.44;;;10.28;31.51
76762;BME280;65705;51.032;13.790;2023-04-06T12:26:26;100719.97;;;10.26;31.29
76762;BME280;65705;51.032;13.790;2023-04-06T12:28:52;100719.50;;;10.31;31.91
76762;BME280;65705;51.032;13.790;2023-04-06T12:31:19;100720.47;;;10.39;31.20
76762;BME280;65705;51.032;13.790;2023-04-06T12:33:49;100713.41;;;10.49;31.56
76762;BME280;65705;51.032;13.790;2023-04-06T12:36:17;100703.66;;;10.59;32.00
76762;BME280;65705;51.032;13.790;2023-04-06T12:38:50;100709.34;;;10.65;30.77
76762;BME280;65705;51.032;13.790;2023-04-06T12:41:16;100705.31;;;10.70;31.09
76762;BME280;65705;51.032;13.790;2023-04-06T12:43:43;100697.91;;;10.83;30.96
76762;BME280;65705;51.032;13.790;2023-04-06T12:46:09;100696.75;;;10.95;30.59
76762;BME280;65705;51.032;13.790;2023-04-06T12:48:35;100701.41;;;11.01;31.68
76762;BME280;65705;51.032;13.790;2023-04-06T12:51:05;100701.34;;;11.11;30.78
76762;BME280;65705;51.032;13.790;2023-04-06T12:53:32;100694.00;;;11.14;31.06
76762;BME280;65705;51.032;13.790;2023-04-06T12:55:58;100698.00;;;11.18;32.32
76762;BME280;65705;51.032;13.790;2023-04-06T12:58:25;100696.06;;;11.38;33.37
76762;BME280;65705;51.032;13.790;2023-04-06T13:00:55;100693.94;;;11.24;32.85
76762;BME280;65705;51.032;13.790;2023-04-06T13:03:21;100686.72;;;11.26;33.41